sensor_id;sensor_type;location;lat;lon;timestamp;temperature;humidity
47757;SHT35;22147;52.388;13.390;2023-02-10T00:01:51;-0.36;77.76
47757;SHT35;22147;52.388;13.390;2023-02-10T00:04:21;-0.38;77.91
47757;SHT35;22147;52.388;13.390;2023-02-10T00:06:51;-0.38;77.93
47757;SHT35;22147;52.388;13.390;2023-02-10T00:09:21;-0.33;78.12
47757;SHT35;22147;52.388;13.390;2023-02-10T00:11:51;-0.32;78.40
47757;SHT35;22147;52.388;13.390;2023-02-10T00:14:29;-0.31;78.61
47757;SHT35;22147;52.388;13.390;2023-02-10T00:16:58;-0.28;78.69
47757;SHT35;22147;52.388;13.390;2023-02-10T00:19:29;-0.24;78.67
47757;SHT35;22147;52.388;13.390;2023-02-10T00:22:02;-0.19;78.36
47757;SHT35;22147;52.388;13.390;2023-02-10T00:24:32;-0.19;78.24
47757;SHT35;22147;52.388;13.390;2023-02-10T00:27:02;-0.17;78.37
47757;SHT35;22147;52.388;13.390;2023-02-10T00:29:32;-0.15;78.31
47757;SHT35;22147;52.388;13.390;2023-02-10T00:32:04;-0.17;78.49
47757;SHT35;22147;52.388;13.390;2023-02-10T00:34:32;-0.15;78.43
47757;SHT35;22147;52.388;13.390;2023-02-10T00:37:02;-0.12;78.41
47757;SHT35;22147;52.388;13.390;2023-02-10T00:39:32;-0.08;78.26
47757;SHT35;22147;52.388;13.390;2023-02-10T00:42:01;-0.08;78.20
47757;SHT35;22147;52.388;13.390;2023-02-10T00:44:31;-0.04;78.30
47757;SHT35;22147;52.388;13.390;2023-02-10T00:47:01;-0.03;78.28
47757;SHT35;22147;52.388;13.390;2023-02-10T00:49:31;0.02;78.24
47757;SHT35;22147;52.388;13.390;2023-02-10T00:52:01;0.02;78.09
47757;SHT35;22147;52.388;13.390;2023-02-10T00:54:31;0.03;78.15
47757;SHT35;22147;52.388;13.390;2023-02-10T00:57:01;0.10;78.13
47757;SHT35;22147;52.388;13.390;2023-02-10T00:59:31;0.09;78.07
47757;SHT35;22147;52.388;13.390;2023-02-10T01:02:00;0.10;78.04
47757;SHT35;22147;52.388;13.390;2023-02-10T01:04:30;0.09;78.47
47757;SHT35;22147;52.388;13.390;2023-02-10T01:07:01;0.07;78.39
47757;SHT35;22147;52.388;13.390;2023-02-10T01:09:31;0.06;78.57
47757;SHT35;22147;52.388;13.390;2023-02-10T01:12:01;0.11;78.56
47757;SHT35;22147;52.388;13.390;2023-02-10T01:14:32;0.10;78.79
47757;SHT35;22147;52.388;13.390;2023-02-10T01:17:02;0.10;78.68
47757;SHT35;22147;52.388;13.390;2023-02-10T01:19:32;0.21;78.56
47757;SHT35;22147;52.388;13.390;2023-02-10T01:22:03;0.20;78.33
47757;SHT35;22147;52.388;13.390;2023-02-10T01:24:32;0.11;78.69
47757;SHT35;22147;52.388;13.390;2023-02-10T01:27:02;0.14;78.71
47757;SHT35;22147;52.388;13.390;2023-02-10T01:29:32;0.16;78.85
47757;SHT35;22147;52.388;13.390;2023-02-10T01:32:02;0.06;79.60
47757;SHT35;22147;52.388;13.390;2023-02-10T01:34:30;0.03;79.60
47757;SHT35;22147;52.388;13.390;2023-02-10T01:36:58;-0.05;79.53
47757;SHT35;22147;52.388;13.390;2023-02-10T01:39:27;-0.19;79.82
47757;SHT35;22147;52.388;13.390;2023-02-10T01:41:55;-0.32;80.21
47757;SHT35;22147;52.388;13.390;2023-02-10T01:46:56;-0.51;80.89
47757;SHT35;22147;52.388;13.390;2023-02-10T01:49:38;-0.62;81.18
47757;SHT35;22147;52.388;13.390;2023-02-10T01:52:24;-0.79;81.62
47757;SHT35;22147;52.388;13.390;2023-02-10T01:55:09;-0.91;82.10
47757;SHT35;22147;52.388;13.390;2023-02-10T01:57:44;-0.94;82.35
47757;SHT35;22147;52.388;13.390;2023-02-10T02:00:15;-1.00;82.60
47757;SHT35;22147;52.388;13.390;2023-02-10T02:02:48;-1.05;83.16
47757;SHT35;22147;52.388;13.390;2023-02-10T02:08:24;-1.11;83.82
47757;SHT35;22147;52.388;13.390;2023-02-10T02:17:06;-1.22;83.68
47757;SHT35;22147;52.388;13.390;2023-02-10T02:32:57;-1.59;84.74
47757;SHT35;22147;52.388;13.390;2023-02-10T02:35:50;-1.69;84.82
47757;SHT35;22147;52.388;13.390;2023-02-10T02:38:23;-1.76;85.10
47757;SHT35;22147;52.388;13.390;2023-02-10T02:40:53;-1.85;85.19
47757;SHT35;22147;52.388;13.390;2023-02-10T02:43:25;-1.89;85.49
47757;SHT35;22147;52.388;13.390;2023-02-10T02:46:58;-1.96;85.71
47757;SHT35;22147;52.388;13.390;2023-02-10T02:50:04;-2.06;85.86
47757;SHT35;22147;52.388;13.390;2023-02-10T03:01:29;-2.28;86.39
47757;SHT35;22147;52.388;13.390;2023-02-10T03:04:03;-2.36;86.67
47757;SHT35;22147;52.388;13.390;2023-02-10T03:06:33;-2.37;86.65
47757;SHT35;22147;52.388;13.390;2023-02-10T03:09:02;-2.42;86.65
47757;SHT35;22147;52.388;13.390;2023-02-10T03:11:30;-2.44;86.69
47757;SHT35;22147;52.388;13.390;2023-02-10T03:13:58;-2.49;86.65
47757;SHT35;22147;52.388;13.390;2023-02-10T03:16:27;-2.55;86.90
47757;SHT35;22147;52.388;13.390;2023-02-10T03:18:55;-2.55;86.91
47757;SHT35;22147;52.388;13.390;2023-02-10T03:21:23;-2.59;87.06
47757;SHT35;22147;52.388;13.390;2023-02-10T03:23:55;-2.62;87.17
47757;SHT35;22147;52.388;13.390;2023-02-10T03:26:24;-2.66;87.23
47757;SHT35;22147;52.388;13.390;2023-02-10T03:28:52;-2.69;87.38
47757;SHT35;22147;52.388;13.390;2023-02-10T03:31:21;-2.72;87.48
47757;SHT35;22147;52.388;13.390;2023-02-10T03:33:49;-2.70;87.55
47757;SHT35;22147;52.388;13.390;2023-02-10T03:36:17;-2.76;87.63
47757;SHT35;22147;52.388;13.390;2023-02-10T03:38:45;-2.78;87.78
47757;SHT35;22147;52.388;13.390;2023-02-10T03:41:14;-2.79;87.79
47757;SHT35;22147;52.388;13.390;2023-02-10T03:43:42;-2.80;87.92
47757;SHT35;22147;52.388;13.390;2023-02-10T03:46:11;-2.85;88.10
47757;SHT35;22147;52.388;13.390;2023-02-10T03:48:39;-2.87;88.21
47757;SHT35;22147;52.388;13.390;2023-02-10T03:51:13;-2.89;88.36
47757;SHT35;22147;52.388;13.390;2023-02-10T03:53:43;-2.92;88.39
47757;SHT35;22147;52.388;13.390;2023-02-10T03:56:13;-2.92;88.42
47757;SHT35;22147;52.388;13.390;2023-02-10T03:58:43;-2.92;88.54
47757;SHT35;22147;52.388;13.390;2023-02-10T04:01:17;-2.86;88.61
47757;SHT35;22147;52.388;13.390;2023-02-10T04:03:47;-2.73;88.68
47757;SHT35;22147;52.388;13.390;2023-02-10T04:06:17;-2.70;88.69
47757;SHT35;22147;52.388;13.390;2023-02-10T04:08:49;-2.65;88.80
47757;SHT35;22147;52.388;13.390;2023-02-10T04:11:19;-2.58;88.94
47757;SHT35;22147;52.388;13.390;2023-02-10T04:13:49;-2.38;89.31
47757;SHT35;22147;52.388;13.390;2023-02-10T04:16:19;-2.30;89.34
47757;SHT35;22147;52.388;13.390;2023-02-10T04:18:51;-2.18;89.37
47757;SHT35;22147;52.388;13.390;2023-02-10T04:21:21;-2.03;89.49
47757;SHT35;22147;52.388;13.390;2023-02-10T04:23:53;-1.87;89.61
47757;SHT35;22147;52.388;13.390;2023-02-10T04:26:23;-1.60;89.70
47757;SHT35;22147;52.388;13.390;2023-02-10T04:28:53;-1.49;89.53
47757;SHT35;22147;52.388;13.390;2023-02-10T04:31:23;-1.27;89.40
47757;SHT35;22147;52.388;13.390;2023-02-10T04:33:53;-1.15;89.01
47757;SHT35;22147;52.388;13.390;2023-02-10T04:36:23;-1.12;88.84
47757;SHT35;22147;52.388;13.390;2023-02-10T04:38:54;-1.00;88.90
47757;SHT35;22147;52.388;13.390;2023-02-10T04:41:24;-0.91;88.77
47757;SHT35;22147;52.388;13.390;2023-02-10T04:43:54;-0.80;88.61
47757;SHT35;22147;52.388;13.390;2023-02-10T04:46:24;-0.76;88.53
47757;SHT35;22147;52.388;13.390;2023-02-10T04:48:55;-0.66;88.37
47757;SHT35;22147;52.388;13.390;2023-02-10T04:51:25;-0.59;88.18
47757;SHT35;22147;52.388;13.390;2023-02-10T04:53:55;-0.56;88.01
47757;SHT35;22147;52.388;13.390;2023-02-10T04:56:25;-0.49;88.03
47757;SHT35;22147;52.388;13.390;2023-02-10T04:58:55;-0.48;87.92
47757;SHT35;22147;52.388;13.390;2023-02-10T05:01:28;-0.41;88.02
47757;SHT35;22147;52.388;13.390;2023-02-10T05:03:59;-0.36;87.88
47757;SHT35;22147;52.388;13.390;2023-02-10T05:06:29;-0.38;87.83
47757;SHT35;22147;52.388;13.390;2023-02-10T05:08:59;-0.24;87.79
47757;SHT35;22147;52.388;13.390;2023-02-10T05:11:30;-0.22;87.56
47757;SHT35;22147;52.388;13.390;2023-02-10T05:14:00;-0.22;87.46
47757;SHT35;22147;52.388;13.390;2023-02-10T05:16:30;-0.10;87.58
47757;SHT35;22147;52.388;13.390;2023-02-10T05:19:00;-0.12;87.52
47757;SHT35;22147;52.388;13.390;2023-02-10T05:21:30;-0.10;87.58
47757;SHT35;22147;52.388;13.390;2023-02-10T05:24:00;0.02;87.60
47757;SHT35;22147;52.388;13.390;2023-02-10T05:26:30;0.07;87.32
47757;SHT35;22147;52.388;13.390;2023-02-10T05:29:00;0.05;87.11
47757;SHT35;22147;52.388;13.390;2023-02-10T05:31:30;0.02;87.12
47757;SHT35;22147;52.388;13.390;2023-02-10T05:34:01;-0.04;87.17
47757;SHT35;22147;52.388;13.390;2023-02-10T05:36:31;-0.04;87.35
47757;SHT35;22147;52.388;13.390;2023-02-10T05:39:02;0.02;87.33
47757;SHT35;22147;52.388;13.390;2023-02-10T05:41:57;0.02;87.13
47757;SHT35;22147;52.388;13.390;2023-02-10T05:44:28;-0.10;87.00
47757;SHT35;22147;52.388;13.390;2023-02-10T05:46:56;-0.11;87.27
47757;SHT35;22147;52.388;13.390;2023-02-10T05:49:26;-0.11;87.29
47757;SHT35;22147;52.388;13.390;2023-02-10T05:51:54;-0.17;87.34
47757;SHT35;22147;52.388;13.390;2023-02-10T05:54:23;-0.17;87.35
47757;SHT35;22147;52.388;13.390;2023-02-10T05:56:51;-0.21;87.42
47757;SHT35;22147;52.388;13.390;2023-02-10T05:59:21;-0.25;87.44
47757;SHT35;22147;52.388;13.390;2023-02-10T06:01:50;-0.18;87.66
47757;SHT35;22147;52.388;13.390;2023-02-10T06:04:18;-0.19;87.58
47757;SHT35;22147;52.388;13.390;2023-02-10T06:06:47;-0.24;87.68
47757;SHT35;22147;52.388;13.390;2023-02-10T06:09:15;-0.15;87.70
47757;SHT35;22147;52.388;13.390;2023-02-10T06:11:43;-0.15;87.62
47757;SHT35;22147;52.388;13.390;2023-02-10T06:14:12;-0.15;87.59
47757;SHT35;22147;52.388;13.390;2023-02-10T06:16:40;-0.17;87.63
47757;SHT35;22147;52.388;13.390;2023-02-10T06:19:09;-0.15;87.76
47757;SHT35;22147;52.388;13.390;2023-02-10T06:21:38;-0.12;87.73
47757;SHT35;22147;52.388;13.390;2023-02-10T06:24:07;-0.19;87.70
47757;SHT35;22147;52.388;13.390;2023-02-10T06:26:36;-0.22;87.68
47757;SHT35;22147;52.388;13.390;2023-02-10T06:29:04;-0.28;87.80
47757;SHT35;22147;52.388;13.390;2023-02-10T06:31:32;-0.33;87.84
47757;SHT35;22147;52.388;13.390;2023-02-10T06:34:01;-0.36;88.15
47757;SHT35;22147;52.388;13.390;2023-02-10T06:36:29;-0.41;88.11
47757;SHT35;22147;52.388;13.390;2023-02-10T06:38:58;-0.45;88.23
47757;SHT35;22147;52.388;13.390;2023-02-10T06:41:26;-0.49;88.27
47757;SHT35;22147;52.388;13.390;2023-02-10T06:43:55;-0.52;88.29
47757;SHT35;22147;52.388;13.390;2023-02-10T06:46:24;-0.58;88.37
47757;SHT35;22147;52.388;13.390;2023-02-10T06:48:54;-0.51;88.64
47757;SHT35;22147;52.388;13.390;2023-02-10T06:51:23;-0.58;88.54
47757;SHT35;22147;52.388;13.390;2023-02-10T06:53:51;-0.59;88.64
47757;SHT35;22147;52.388;13.390;2023-02-10T06:56:20;-0.61;88.80
47757;SHT35;22147;52.388;13.390;2023-02-10T06:58:48;-0.65;89.03
47757;SHT35;22147;52.388;13.390;2023-02-10T07:01:17;-0.63;89.11
47757;SHT35;22147;52.388;13.390;2023-02-10T07:03:48;-0.62;89.12
47757;SHT35;22147;52.388;13.390;2023-02-10T07:06:16;-0.56;89.30
47757;SHT35;22147;52.388;13.390;2023-02-10T07:08:45;-0.43;89.19
47757;SHT35;22147;52.388;13.390;2023-02-10T07:11:13;-0.43;89.17
47757;SHT35;22147;52.388;13.390;2023-02-10T07:13:42;-0.43;89.21
47757;SHT35;22147;52.388;13.390;2023-02-10T07:16:10;-0.43;89.20
47757;SHT35;22147;52.388;13.390;2023-02-10T07:18:44;-0.42;89.32
47757;SHT35;22147;52.388;13.390;2023-02-10T07:21:12;-0.36;89.37
47757;SHT35;22147;52.388;13.390;2023-02-10T07:23:41;-0.31;89.42
47757;SHT35;22147;52.388;13.390;2023-02-10T07:26:12;-0.25;89.32
47757;SHT35;22147;52.388;13.390;2023-02-10T07:28:39;-0.12;89.31
47757;SHT35;22147;52.388;13.390;2023-02-10T07:31:08;-0.04;89.00
47757;SHT35;22147;52.388;13.390;2023-02-10T07:33:37;0.02;88.87
47757;SHT35;22147;52.388;13.390;2023-02-10T07:36:06;0.11;88.77
47757;SHT35;22147;52.388;13.390;2023-02-10T07:38:36;0.21;88.60
47757;SHT35;22147;52.388;13.390;2023-02-10T07:41:07;0.30;88.38
47757;SHT35;22147;52.388;13.390;2023-02-10T07:43:35;0.43;88.34
47757;SHT35;22147;52.388;13.390;2023-02-10T07:46:05;0.54;88.16
47757;SHT35;22147;52.388;13.390;2023-02-10T07:48:36;0.64;87.81
47757;SHT35;22147;52.388;13.390;2023-02-10T07:51:06;0.76;87.71
47757;SHT35;22147;52.388;13.390;2023-02-10T07:53:36;0.91;87.35
47757;SHT35;22147;52.388;13.390;2023-02-10T07:56:06;1.02;86.90
47757;SHT35;22147;52.388;13.390;2023-02-10T07:58:37;1.20;86.62
47757;SHT35;22147;52.388;13.390;2023-02-10T08:01:10;1.33;85.76
47757;SHT35;22147;52.388;13.390;2023-02-10T08:03:37;1.29;85.59
47757;SHT35;22147;52.388;13.390;2023-02-10T08:06:08;1.39;85.57
47757;SHT35;22147;52.388;13.390;2023-02-10T08:08:37;1.42;85.42
47757;SHT35;22147;52.388;13.390;2023-02-10T08:11:07;1.54;85.51
47757;SHT35;22147;52.388;13.390;2023-02-10T08:13:38;1.64;85.31
47757;SHT35;22147;52.388;13.390;2023-02-10T08:16:09;1.64;84.93
47757;SHT35;22147;52.388;13.390;2023-02-10T08:18:41;1.68;85.02
47757;SHT35;22147;52.388;13.390;2023-02-10T08:21:10;1.75;84.78
47757;SHT35;22147;52.388;13.390;2023-02-10T08:23:41;1.90;84.62
47757;SHT35;22147;52.388;13.390;2023-02-10T08:26:12;2.01;84.37
47757;SHT35;22147;52.388;13.390;2023-02-10T08:28:41;2.13;84.19
47757;SHT35;22147;52.388;13.390;2023-02-10T08:31:11;2.25;84.01
47757;SHT35;22147;52.388;13.390;2023-02-10T08:33:42;2.30;83.82
47757;SHT35;22147;52.388;13.390;2023-02-10T08:36:19;2.47;82.93
47757;SHT35;22147;52.388;13.390;2023-02-10T08:38:50;2.50;82.82
47757;SHT35;22147;52.388;13.390;2023-02-10T08:41:18;2.49;83.00
47757;SHT35;22147;52.388;13.390;2023-02-10T08:43:49;2.62;82.88
47757;SHT35;22147;52.388;13.390;2023-02-10T08:46:19;2.85;82.13
47757;SHT35;22147;52.388;13.390;2023-02-10T08:48:49;2.92;81.94
47757;SHT35;22147;52.388;13.390;2023-02-10T08:51:16;2.74;82.15
47757;SHT35;22147;52.388;13.390;2023-02-10T08:53:46;2.87;82.23
47757;SHT35;22147;52.388;13.390;2023-02-10T08:56:18;2.90;81.99
47757;SHT35;22147;52.388;13.390;2023-02-10T08:58:48;2.88;82.04
47757;SHT35;22147;52.388;13.390;2023-02-10T09:01:24;2.98;81.95
47757;SHT35;22147;52.388;13.390;2023-02-10T09:03:59;2.97;81.81
47757;SHT35;22147;52.388;13.390;2023-02-10T09:06:39;3.04;81.91
47757;SHT35;22147;52.388;13.390;2023-02-10T09:09:19;3.49;81.91
47757;SHT35;22147;52.388;13.390;2023-02-10T09:11:53;3.90;79.80
47757;SHT35;22147;52.388;13.390;2023-02-10T09:14:23;4.05;79.55
47757;SHT35;22147;52.388;13.390;2023-02-10T09:16:51;4.46;78.18
47757;SHT35;22147;52.388;13.390;2023-02-10T09:19:20;4.77;77.60
47757;SHT35;22147;52.388;13.390;2023-02-10T09:21:49;5.07;76.38
47757;SHT35;22147;52.388;13.390;2023-02-10T09:24:18;4.86;76.58
47757;SHT35;22147;52.388;13.390;2023-02-10T09:26:46;5.17;75.82
47757;SHT35;22147;52.388;13.390;2023-02-10T09:29:15;5.35;75.53
47757;SHT35;22147;52.388;13.390;2023-02-10T09:31:42;5.31;75.11
47757;SHT35;22147;52.388;13.390;2023-02-10T09:34:11;5.20;75.14
47757;SHT35;22147;52.388;13.390;2023-02-10T09:36:39;5.14;75.59
47757;SHT35;22147;52.388;13.390;2023-02-10T09:39:08;5.13;75.69
47757;SHT35;22147;52.388;13.390;2023-02-10T09:44:24;4.65;77.38
47757;SHT35;22147;52.388;13.390;2023-02-10T09:47:01;4.72;77.33
47757;SHT35;22147;52.388;13.390;2023-02-10T09:49:53;4.67;77.36
47757;SHT35;22147;52.388;13.390;2023-02-10T09:53:20;4.74;77.47
47757;SHT35;22147;52.388;13.390;2023-02-10T09:56:02;4.76;77.74
47757;SHT35;22147;52.388;13.390;2023-02-10T09:58:46;4.76;77.83
47757;SHT35;22147;52.388;13.390;2023-02-10T10:01:32;4.69;78.26
47757;SHT35;22147;52.388;13.390;2023-02-10T10:04:16;4.83;77.49
47757;SHT35;22147;52.388;13.390;2023-02-10T10:06:56;4.98;77.60
47757;SHT35;22147;52.388;13.390;2023-02-10T10:09:53;5.07;76.87
47757;SHT35;22147;52.388;13.390;2023-02-10T10:12:25;5.13;76.56
47757;SHT35;22147;52.388;13.390;2023-02-10T10:14:56;5.18;77.18
47757;SHT35;22147;52.388;13.390;2023-02-10T10:24:03;4.88;77.29
47757;SHT35;22147;52.388;13.390;2023-02-10T10:26:59;4.95;77.25
47757;SHT35;22147;52.388;13.390;2023-02-10T10:29:54;5.00;77.36
47757;SHT35;22147;52.388;13.390;2023-02-10T10:32:46;5.10;77.43
47757;SHT35;22147;52.388;13.390;2023-02-10T10:35:30;5.17;77.27
47757;SHT35;22147;52.388;13.390;2023-02-10T10:38:16;5.08;77.55
47757;SHT35;22147;52.388;13.390;2023-02-10T10:40:55;5.18;77.08
47757;SHT35;22147;52.388;13.390;2023-02-10T10:43:41;5.22;76.98
47757;SHT35;22147;52.388;13.390;2023-02-10T10:46:34;5.30;76.95
47757;SHT35;22147;52.388;13.390;2023-02-10T10:49:06;5.05;77.15
47757;SHT35;22147;52.388;13.390;2023-02-10T10:51:37;4.94;78.10
47757;SHT35;22147;52.388;13.390;2023-02-10T10:54:15;5.03;77.76
47757;SHT35;22147;52.388;13.390;2023-02-10T10:57:00;4.95;78.23
47757;SHT35;22147;52.388;13.390;2023-02-10T10:59:46;4.95;77.81
47757;SHT35;22147;52.388;13.390;2023-02-10T11:02:21;4.93;78.19
47757;SHT35;22147;52.388;13.390;2023-02-10T11:05:08;4.95;78.13
47757;SHT35;22147;52.388;13.390;2023-02-10T11:07:48;4.91;78.44
47757;SHT35;22147;52.388;13.390;2023-02-10T11:10:51;5.17;77.83
47757;SHT35;22147;52.388;13.390;2023-02-10T11:13:30;5.04;78.31
47757;SHT35;22147;52.388;13.390;2023-02-10T11:16:07;5.11;78.40
47757;SHT35;22147;52.388;13.390;2023-02-10T11:18:36;5.11;77.61
47757;SHT35;22147;52.388;13.390;2023-02-10T11:21:10;5.17;77.64
47757;SHT35;22147;52.388;13.390;2023-02-10T11:23:53;5.27;77.17
47757;SHT35;22147;52.388;13.390;2023-02-10T11:26:26;5.25;77.68
47757;SHT35;22147;52.388;13.390;2023-02-10T11:28:56;5.31;77.84
47757;SHT35;22147;52.388;13.390;2023-02-10T11:31:32;5.60;77.53
47757;SHT35;22147;52.388;13.390;2023-02-10T11:34:38;5.83;76.05
47757;SHT35;22147;52.388;13.390;2023-02-10T11:37:32;5.90;75.97
47757;SHT35;22147;52.388;13.390;2023-02-10T11:40:24;5.93;75.81
47757;SHT35;22147;52.388;13.390;2023-02-10T11:43:00;6.09;74.93
47757;SHT35;22147;52.388;13.390;2023-02-10T11:45:32;6.22;74.50
47757;SHT35;22147;52.388;13.390;2023-02-10T11:48:16;6.07;75.03
47757;SHT35;22147;52.388;13.390;2023-02-10T11:50:46;6.09;75.10
47757;SHT35;22147;52.388;13.390;2023-02-10T11:53:29;6.32;75.14
47757;SHT35;22147;52.388;13.390;2023-02-10T11:56:24;6.27;74.59
47757;SHT35;22147;52.388;13.390;2023-02-10T12:05:50;6.44;73.94
47757;SHT35;22147;52.388;13.390;2023-02-10T12:12:26;6.32;74.08
47757;SHT35;22147;52.388;13.390;2023-02-10T12:19:23;6.42;74.00
47757;SHT35;22147;52.388;13.390;2023-02-10T12:22:28;6.73;72.85
47757;SHT35;22147;52.388;13.390;2023-02-10T12:28:54;6.59;72.87
47757;SHT35;22147;52.388;13.390;2023-02-10T12:32:02;6.58;73.57
47757;SHT35;22147;52.388;13.390;2023-02-10T12:35:04;6.83;72.94
47757;SHT35;22147;52.388;13.390;2023-02-10T12:38:03;6.61;73.49
47757;SHT35;22147;52.388;13.390;2023-02-10T12:41:33;6.53;73.89
47757;SHT35;22147;52.388;13.390;2023-02-10T12:44:33;6.58;73.24
47757;SHT35;22147;52.388;13.390;2023-02-10T12:47:53;6.48;73.46
47757;SHT35;22147;52.388;13.390;2023-02-10T12:57:41;6.35;74.09
47757;SHT35;22147;52.388;13.390;2023-02-10T13:00:21;6.42;73.62
47757;SHT35;22147;52.388;13.390;2023-02-10T13:05:43;6.58;73.89
47757;SHT35;22147;52.388;13.390;2023-02-10T13:08:59;6.83;73.07
47757;SHT35;22147;52.388;13.390;2023-02-10T13:14:59;6.53;73.26
47757;SHT35;22147;52.388;13.390;2023-02-10T13:17:45;6.61;73.24
47757;SHT35;22147;52.388;13.390;2023-02-10T13:20:30;6.72;73.17
47757;SHT35;22147;52.388;13.390;2023-02-10T13:23:28;6.49;74.08
47757;SHT35;22147;52.388;13.390;2023-02-10T13:26:37;6.48;74.27
47757;SHT35;22147;52.388;13.390;2023-02-10T13:35:22;6.44;74.05
47757;SHT35;22147;52.388;13.390;2023-02-10T13:37:57;6.56;73.88
47757;SHT35;22147;52.388;13.390;2023-02-10T13:40:49;6.45;74.14
47757;SHT35;22147;52.388;13.390;2023-02-10T13:43:34;6.48;74.16
47757;SHT35;22147;52.388;13.390;2023-02-10T13:46:05;6.67;74.14
47757;SHT35;22147;52.388;13.390;2023-02-10T13:48:44;6.65;73.58
47757;SHT35;22147;52.388;13.390;2023-02-10T13:51:13;6.55;73.94
47757;SHT35;22147;52.388;13.390;2023-02-10T13:53:42;6.44;74.20
47757;SHT35;22147;52.388;13.390;2023-02-10T13:59:05;6.49;73.58
47757;SHT35;22147;52.388;13.390;2023-02-10T14:02:16;6.55;74.03
47757;SHT35;22147;52.388;13.390;2023-02-10T14:04:54;6.45;74.15
47757;SHT35;22147;52.388;13.390;2023-02-10T14:10:29;6.34;74.53
47757;SHT35;22147;52.388;13.390;2023-02-10T14:13:27;6.34;74.66
47757;SHT35;22147;52.388;13.390;2023-02-10T14:16:05;6.38;75.02
47757;SHT35;22147;52.388;13.390;2023-02-10T14:18:39;6.62;73.62
47757;SHT35;22147;52.388;13.390;2023-02-10T14:21:17;6.20;74.34
47757;SHT35;22147;52.388;13.390;2023-02-10T14:23:55;6.41;74.05
47757;SHT35;22147;52.388;13.390;2023-02-10T14:26:35;6.40;73.88
47757;SHT35;22147;52.388;13.390;2023-02-10T14:29:17;6.01;74.14
47757;SHT35;22147;52.388;13.390;2023-02-10T14:32:03;6.11;74.26
47757;SHT35;22147;52.388;13.390;2023-02-10T14:34:36;6.01;74.53
47757;SHT35;22147;52.388;13.390;2023-02-10T14:37:19;6.06;73.86
47757;SHT35;22147;52.388;13.390;2023-02-10T14:39:55;6.21;73.84
47757;SHT35;22147;52.388;13.390;2023-02-10T14:42:31;6.30;73.23
47757;SHT35;22147;52.388;13.390;2023-02-10T14:45:03;6.18;73.68
47757;SHT35;22147;52.388;13.390;2023-02-10T14:47:43;6.16;73.94
47757;SHT35;22147;52.388;13.390;2023-02-10T14:50:34;5.85;74.60
47757;SHT35;22147;52.388;13.390;2023-02-10T14:53:05;5.72;74.86
47757;SHT35;22147;52.388;13.390;2023-02-10T14:55:38;5.67;75.05
47757;SHT35;22147;52.388;13.390;2023-02-10T14:58:16;5.73;75.34
47757;SHT35;22147;52.388;13.390;2023-02-10T15:01:14;5.63;75.62
47757;SHT35;22147;52.388;13.390;2023-02-10T15:03:48;5.69;75.16
47757;SHT35;22147;52.388;13.390;2023-02-10T15:06:23;5.51;75.77
47757;SHT35;22147;52.388;13.390;2023-02-10T15:09:17;5.53;75.74
47757;SHT35;22147;52.388;13.390;2023-02-10T15:12:06;5.36;76.36
47757;SHT35;22147;52.388;13.390;2023-02-10T15:15:04;5.35;76.38
47757;SHT35;22147;52.388;13.390;2023-02-10T15:17:53;5.30;76.72
47757;SHT35;22147;52.388;13.390;2023-02-10T15:20:30;5.15;77.18
47757;SHT35;22147;52.388;13.390;2023-02-10T15:25:35;5.21;77.00
47757;SHT35;22147;52.388;13.390;2023-02-10T15:30:53;4.88;77.43
47757;SHT35;22147;52.388;13.390;2023-02-10T15:33:37;4.88;77.69
47757;SHT35;22147;52.388;13.390;2023-02-10T15:36:22;4.70;77.99
47757;SHT35;22147;52.388;13.390;2023-02-10T15:49:54;4.24;79.78
47757;SHT35;22147;52.388;13.390;2023-02-10T15:52:37;4.15;79.41
47757;SHT35;22147;52.388;13.390;2023-02-10T15:55:34;4.11;80.18
47757;SHT35;22147;52.388;13.390;2023-02-10T15:58:05;3.97;80.49
47757;SHT35;22147;52.388;13.390;2023-02-10T16:00:41;3.94;80.49
47757;SHT35;22147;52.388;13.390;2023-02-10T16:03:14;3.83;81.00
47757;SHT35;22147;52.388;13.390;2023-02-10T16:05:44;3.74;81.44
47757;SHT35;22147;52.388;13.390;2023-02-10T16:08:22;3.76;81.64
47757;SHT35;22147;52.388;13.390;2023-02-10T16:10:52;3.70;81.62
47757;SHT35;22147;52.388;13.390;2023-02-10T16:13:20;3.71;81.73
47757;SHT35;22147;52.388;13.390;2023-02-10T16:15:50;3.59;81.72
47757;SHT35;22147;52.388;13.390;2023-02-10T16:18:27;3.66;82.15
47757;SHT35;22147;52.388;13.390;2023-02-10T16:20:56;3.56;82.20
47757;SHT35;22147;52.388;13.390;2023-02-10T16:23:29;3.52;82.33
47757;SHT35;22147;52.388;13.390;2023-02-10T16:25:59;3.46;82.56
47757;SHT35;22147;52.388;13.390;2023-02-10T16:28:31;3.50;82.64
47757;SHT35;22147;52.388;13.390;2023-02-10T16:31:00;3.39;82.66
47757;SHT35;22147;52.388;13.390;2023-02-10T16:33:29;3.33;82.87
47757;SHT35;22147;52.388;13.390;2023-02-10T16:36:05;3.38;82.85
47757;SHT35;22147;52.388;13.390;2023-02-10T16:38:35;3.25;82.80
47757;SHT35;22147;52.388;13.390;2023-02-10T16:41:06;3.12;83.23
47757;SHT35;22147;52.388;13.390;2023-02-10T16:43:36;3.04;83.79
47757;SHT35;22147;52.388;13.390;2023-02-10T16:46:14;3.01;84.03
47757;SHT35;22147;52.388;13.390;2023-02-10T16:48:47;3.08;83.94
47757;SHT35;22147;52.388;13.390;2023-02-10T16:51:17;2.99;83.95
47757;SHT35;22147;52.388;13.390;2023-02-10T16:53:47;2.91;84.30
47757;SHT35;22147;52.388;13.390;2023-02-10T16:56:18;2.85;84.39
47757;SHT35;22147;52.388;13.390;2023-02-10T16:58:50;2.83;84.46
47757;SHT35;22147;52.388;13.390;2023-02-10T17:01:20;2.78;84.62
47757;SHT35;22147;52.388;13.390;2023-02-10T17:03:50;2.78;84.81
47757;SHT35;22147;52.388;13.390;2023-02-10T17:06:21;2.71;84.88
47757;SHT35;22147;52.388;13.390;2023-02-10T17:08:52;2.84;84.78
47757;SHT35;22147;52.388;13.390;2023-02-10T17:11:22;2.87;84.92
47757;SHT35;22147;52.388;13.390;2023-02-10T17:13:52;2.90;84.96
47757;SHT35;22147;52.388;13.390;2023-02-10T17:16:35;3.04;84.55
47757;SHT35;22147;52.388;13.390;2023-02-10T17:19:07;2.97;84.30
47757;SHT35;22147;52.388;13.390;2023-02-10T17:21:38;2.83;84.63
47757;SHT35;22147;52.388;13.390;2023-02-10T17:24:08;2.94;84.85
47757;SHT35;22147;52.388;13.390;2023-02-10T17:26:39;2.83;84.64
47757;SHT35;22147;52.388;13.390;2023-02-10T17:29:17;2.73;85.04
47757;SHT35;22147;52.388;13.390;2023-02-10T17:31:48;2.73;85.36
47757;SHT35;22147;52.388;13.390;2023-02-10T17:34:16;2.76;85.48
47757;SHT35;22147;52.388;13.390;2023-02-10T17:36:47;2.64;85.50
47757;SHT35;22147;52.388;13.390;2023-02-10T17:39:19;2.61;85.97
47757;SHT35;22147;52.388;13.390;2023-02-10T17:41:57;2.65;86.22
47757;SHT35;22147;52.388;13.390;2023-02-10T17:44:28;2.73;85.82
47757;SHT35;22147;52.388;13.390;2023-02-10T17:47:00;2.64;85.70
47757;SHT35;22147;52.388;13.390;2023-02-10T17:49:33;2.83;85.54
47757;SHT35;22147;52.388;13.390;2023-02-10T17:52:03;2.76;85.61
47757;SHT35;22147;52.388;13.390;2023-02-10T17:54:34;2.77;85.32
47757;SHT35;22147;52.388;13.390;2023-02-10T17:57:04;2.95;85.47